sensor_id;sensor_type;location;lat;lon;timestamp;pressure;altitude;pressure_sealevel;temperature;humidity
52249;BME280;38541;48.130;8.378;2023-02-14T00:00:24;94354.78;;;-1.21;79.93
52249;BME280;38541;48.130;8.378;2023-02-14T00:02:51;94357.47;;;-1.22;80.62
52249;BME280;38541;48.130;8.378;2023-02-14T00:05:17;94353.16;;;-1.22;80.59
52249;BME280;38541;48.130;8.378;2023-02-14T00:07:44;94347.69;;;-1.19;81.19
52249;BME280;38541;48.130;8.378;2023-02-14T00:10:10;94349.00;;;-1.15;80.70
52249;BME280;38541;48.130;8.378;2023-02-14T00:12:37;94343.50;;;-1.20;80.45
52249;BME280;38541;48.130;8.378;2023-02-14T00:15:03;94347.16;;;-1.22;80.42
52249;BME280;38541;48.130;8.378;2023-02-14T00:17:53;94360.19;;;-1.24;79.99
52249;BME280;38541;48.130;8.378;2023-02-14T00:20:21;94348.13;;;-1.23;80.65
52249;BME280;38541;48.130;8.378;2023-02-14T00:22:48;94349.75;;;-1.22;80.57
52249;BME280;38541;48.130;8.378;2023-02-14T00:25:15;94348.13;;;-1.23;80.61
52249;BME280;38541;48.130;8.378;2023-02-14T00:27:42;94346.50;;;-1.24;80.15
52249;BME280;38541;48.130;8.378;2023-02-14T00:30:10;94349.88;;;-1.24;80.33
52249;BME280;38541;48.130;8.378;2023-02-14T00:32:41;94345.69;;;-1.25;80.44
52249;BME280;38541;48.130;8.378;2023-02-14T00:35:08;94346.66;;;-1.26;80.00
52249;BME280;38541;48.130;8.378;2023-02-14T00:37:39;94341.66;;;-1.27;80.33
52249;BME280;38541;48.130;8.378;2023-02-14T00:40:06;94337.16;;;-1.25;81.22
52249;BME280;38541;48.130;8.378;2023-02-14T00:42:33;94341.22;;;-1.23;81.23
52249;BME280;38541;48.130;8.378;2023-02-14T00:44:59;94339.28;;;-1.21;81.07
52249;BME280;38541;48.130;8.378;2023-02-14T00:47:26;94343.94;;;-1.24;80.61
52249;BME280;38541;48.130;8.378;2023-02-14T00:49:53;94345.84;;;-1.26;80.68
52249;BME280;38541;48.130;8.378;2023-02-14T00:52:20;94344.25;;;-1.27;81.12
52249;BME280;38541;48.130;8.378;2023-02-14T00:54:46;94341.50;;;-1.26;81.38
52249;BME280;38541;48.130;8.378;2023-02-14T00:57:13;94337.94;;;-1.25;81.05
52249;BME280;38541;48.130;8.378;2023-02-14T00:59:39;94344.72;;;-1.24;81.22
52249;BME280;38541;48.130;8.378;2023-02-14T01:02:05;94343.41;;;-1.28;80.32
52249;BME280;38541;48.130;8.378;2023-02-14T01:04:33;94341.09;;;-1.39;79.61
52249;BME280;38541;48.130;8.378;2023-02-14T01:06:59;94344.00;;;-1.34;80.32
52249;BME280;38541;48.130;8.378;2023-02-14T01:09:26;94343.34;;;-1.36;80.15
52249;BME280;38541;48.130;8.378;2023-02-14T01:11:52;94339.66;;;-1.34;81.16
52249;BME280;38541;48.130;8.378;2023-02-14T01:14:18;94343.41;;;-1.28;81.83
52249;BME280;38541;48.130;8.378;2023-02-14T01:16:45;94343.00;;;-1.41;80.31
52249;BME280;38541;48.130;8.378;2023-02-14T01:19:12;94340.84;;;-1.46;79.59
52249;BME280;38541;48.130;8.378;2023-02-14T01:21:42;94338.94;;;-1.44;80.39
52249;BME280;38541;48.130;8.378;2023-02-14T01:24:09;94341.34;;;-1.42;81.13
52249;BME280;38541;48.130;8.378;2023-02-14T01:26:37;94339.59;;;-1.42;81.15
52249;BME280;38541;48.130;8.378;2023-02-14T01:29:04;94345.72;;;-1.43;81.30
52249;BME280;38541;48.130;8.378;2023-02-14T01:31:33;94338.13;;;-1.45;81.13
52249;BME280;38541;48.130;8.378;2023-02-14T01:34:00;94339.25;;;-1.47;80.51
52249;BME280;38541;48.130;8.378;2023-02-14T01:36:37;94330.38;;;-1.45;80.87
52249;BME280;38541;48.130;8.378;2023-02-14T01:39:10;94334.56;;;-1.44;81.11
52249;BME280;38541;48.130;8.378;2023-02-14T01:41:39;94329.59;;;-1.45;81.48
52249;BME280;38541;48.130;8.378;2023-02-14T01:46:40;94336.50;;;-1.46;82.31
52249;BME280;38541;48.130;8.378;2023-02-14T01:49:16;94330.03;;;-1.50;81.66
52249;BME280;38541;48.130;8.378;2023-02-14T01:51:49;94332.59;;;-1.50;81.83
52249;BME280;38541;48.130;8.378;2023-02-14T01:54:17;94337.09;;;-1.52;81.66
52249;BME280;38541;48.130;8.378;2023-02-14T01:56:47;94334.09;;;-1.47;82.36
52249;BME280;38541;48.130;8.378;2023-02-14T01:59:19;94327.81;;;-1.45;82.15
52249;BME280;38541;48.130;8.378;2023-02-14T02:01:47;94319.13;;;-1.44;82.51
52249;BME280;38541;48.130;8.378;2023-02-14T02:04:25;94327.00;;;-1.45;82.10
52249;BME280;38541;48.130;8.378;2023-02-14T02:06:58;94324.56;;;-1.47;81.86
52249;BME280;38541;48.130;8.378;2023-02-14T02:09:35;94326.34;;;-1.47;82.24
52249;BME280;38541;48.130;8.378;2023-02-14T02:12:03;94320.25;;;-1.46;82.06
52249;BME280;38541;48.130;8.378;2023-02-14T02:14:30;94325.97;;;-1.52;80.55
52249;BME280;38541;48.130;8.378;2023-02-14T02:17:17;94315.66;;;-1.52;80.65
52249;BME280;38541;48.130;8.378;2023-02-14T02:30:48;94312.06;;;-1.60;81.56
52249;BME280;38541;48.130;8.378;2023-02-14T02:36:06;94303.66;;;-1.62;81.75
52249;BME280;38541;48.130;8.378;2023-02-14T02:38:40;94304.34;;;-1.60;81.48
52249;BME280;38541;48.130;8.378;2023-02-14T02:41:22;94301.22;;;-1.63;81.35
52249;BME280;38541;48.130;8.378;2023-02-14T02:44:24;94297.34;;;-1.67;81.80
52249;BME280;38541;48.130;8.378;2023-02-14T02:49:40;94301.84;;;-1.69;81.76
52249;BME280;38541;48.130;8.378;2023-02-14T02:52:58;94303.31;;;-1.67;81.67
52249;BME280;38541;48.130;8.378;2023-02-14T02:58:36;94314.84;;;-1.71;81.57
52249;BME280;38541;48.130;8.378;2023-02-14T03:01:09;94307.13;;;-1.71;81.80
52249;BME280;38541;48.130;8.378;2023-02-14T03:03:38;94303.75;;;-1.72;82.00
52249;BME280;38541;48.130;8.378;2023-02-14T03:06:25;94305.38;;;-1.70;82.51
52249;BME280;38541;48.130;8.378;2023-02-14T03:08:51;94315.53;;;-1.69;82.51
52249;BME280;38541;48.130;8.378;2023-02-14T03:11:18;94312.50;;;-1.64;82.53
52249;BME280;38541;48.130;8.378;2023-02-14T03:17:03;94307.19;;;-1.81;79.99
52249;BME280;38541;48.130;8.378;2023-02-14T03:20:28;94306.53;;;-1.83;79.72
52249;BME280;38541;48.130;8.378;2023-02-14T03:22:47;94300.72;;;-1.85;80.48
52249;BME280;38541;48.130;8.378;2023-02-14T03:25:37;94290.81;;;-1.80;81.29
52249;BME280;38541;48.130;8.378;2023-02-14T03:31:29;94288.72;;;-1.76;82.42
52249;BME280;38541;48.130;8.378;2023-02-14T03:36:53;94292.84;;;-1.83;80.92
52249;BME280;38541;48.130;8.378;2023-02-14T03:39:39;94286.88;;;-1.84;81.39
52249;BME280;38541;48.130;8.378;2023-02-14T03:42:17;94289.03;;;-1.79;81.96
52249;BME280;38541;48.130;8.378;2023-02-14T03:44:45;94281.78;;;-1.94;80.59
52249;BME280;38541;48.130;8.378;2023-02-14T03:47:17;94281.56;;;-2.01;80.32
52249;BME280;38541;48.130;8.378;2023-02-14T03:49:49;94285.50;;;-1.96;81.35
52249;BME280;38541;48.130;8.378;2023-02-14T03:52:18;94291.31;;;-1.94;81.52
52249;BME280;38541;48.130;8.378;2023-02-14T03:54:47;94288.72;;;-1.94;81.77
52249;BME280;38541;48.130;8.378;2023-02-14T03:57:41;94289.28;;;-2.01;81.18
52249;BME280;38541;48.130;8.378;2023-02-14T04:00:13;94278.31;;;-2.03;81.15
52249;BME280;38541;48.130;8.378;2023-02-14T04:02:47;94286.72;;;-2.01;81.87
52249;BME280;38541;48.130;8.378;2023-02-14T04:05:18;94285.25;;;-2.03;81.74
52249;BME280;38541;48.130;8.378;2023-02-14T04:07:49;94287.69;;;-2.02;81.79
52249;BME280;38541;48.130;8.378;2023-02-14T04:10:17;94279.94;;;-2.02;82.14
52249;BME280;38541;48.130;8.378;2023-02-14T04:12:44;94281.44;;;-1.99;82.66
52249;BME280;38541;48.130;8.378;2023-02-14T04:15:12;94278.84;;;-1.99;82.90
52249;BME280;38541;48.130;8.378;2023-02-14T04:17:39;94276.16;;;-1.97;82.78
52249;BME280;38541;48.130;8.378;2023-02-14T04:20:24;94284.13;;;-2.01;82.58
52249;BME280;38541;48.130;8.378;2023-02-14T04:22:51;94279.69;;;-1.98;82.76
52249;BME280;38541;48.130;8.378;2023-02-14T04:25:19;94283.88;;;-1.97;82.37
52249;BME280;38541;48.130;8.378;2023-02-14T04:27:46;94283.34;;;-2.01;82.14
52249;BME280;38541;48.130;8.378;2023-02-14T04:30:12;94283.78;;;-2.06;81.99
52249;BME280;38541;48.130;8.378;2023-02-14T04:32:40;94280.53;;;-2.08;81.75
52249;BME280;38541;48.130;8.378;2023-02-14T04:35:07;94283.13;;;-2.08;82.49
52249;BME280;38541;48.130;8.378;2023-02-14T04:37:33;94288.94;;;-2.06;82.60
52249;BME280;38541;48.130;8.378;2023-02-14T04:40:00;94292.69;;;-2.00;82.63
52249;BME280;38541;48.130;8.378;2023-02-14T04:42:26;94293.47;;;-1.99;82.33
52249;BME280;38541;48.130;8.378;2023-02-14T04:44:53;94292.16;;;-2.04;81.50
52249;BME280;38541;48.130;8.378;2023-02-14T04:47:19;94291.66;;;-2.07;81.65
52249;BME280;38541;48.130;8.378;2023-02-14T04:49:45;94286.66;;;-2.09;81.96
52249;BME280;38541;48.130;8.378;2023-02-14T04:52:12;94281.63;;;-2.10;82.21
52249;BME280;38541;48.130;8.378;2023-02-14T04:54:38;94291.72;;;-2.17;81.12
52249;BME280;38541;48.130;8.378;2023-02-14T04:57:05;94293.06;;;-2.13;81.36
52249;BME280;38541;48.130;8.378;2023-02-14T04:59:31;94292.47;;;-2.07;81.81
52249;BME280;38541;48.130;8.378;2023-02-14T05:01:58;94297.59;;;-2.07;81.77
52249;BME280;38541;48.130;8.378;2023-02-14T05:04:24;94291.50;;;-2.06;81.99
52249;BME280;38541;48.130;8.378;2023-02-14T05:06:51;94290.41;;;-2.03;82.56
52249;BME280;38541;48.130;8.378;2023-02-14T05:09:17;94291.88;;;-2.01;82.96
52249;BME280;38541;48.130;8.378;2023-02-14T05:11:44;94288.34;;;-1.99;83.15
52249;BME280;38541;48.130;8.378;2023-02-14T05:14:10;94292.41;;;-1.97;83.00
52249;BME280;38541;48.130;8.378;2023-02-14T05:16:37;94288.84;;;-1.96;82.86
52249;BME280;38541;48.130;8.378;2023-02-14T05:19:03;94297.25;;;-1.94;82.80
52249;BME280;38541;48.130;8.378;2023-02-14T05:21:30;94291.59;;;-1.97;82.61
52249;BME280;38541;48.130;8.378;2023-02-14T05:23:59;94291.59;;;-1.97;82.68
52249;BME280;38541;48.130;8.378;2023-02-14T05:26:26;94294.44;;;-2.01;82.34
52249;BME280;38541;48.130;8.378;2023-02-14T05:28:52;94295.19;;;-2.08;81.70
52249;BME280;38541;48.130;8.378;2023-02-14T05:31:19;94292.47;;;-2.07;82.08
52249;BME280;38541;48.130;8.378;2023-02-14T05:33:45;94294.97;;;-1.97;82.81
52249;BME280;38541;48.130;8.378;2023-02-14T05:36:12;94300.28;;;-1.98;82.40
52249;BME280;38541;48.130;8.378;2023-02-14T05:38:38;94297.31;;;-2.04;81.80
52249;BME280;38541;48.130;8.378;2023-02-14T05:41:05;94295.31;;;-2.10;81.28
52249;BME280;38541;48.130;8.378;2023-02-14T05:43:31;94296.00;;;-2.08;81.47
52249;BME280;38541;48.130;8.378;2023-02-14T05:45:58;94295.31;;;-2.10;81.58
52249;BME280;38541;48.130;8.378;2023-02-14T05:48:25;94305.25;;;-2.15;81.37
52249;BME280;38541;48.130;8.378;2023-02-14T05:50:51;94301.13;;;-2.08;82.47
52249;BME280;38541;48.130;8.378;2023-02-14T05:53:18;94298.84;;;-2.11;81.91
52249;BME280;38541;48.130;8.378;2023-02-14T05:55:44;94294.66;;;-2.12;81.49
52249;BME280;38541;48.130;8.378;2023-02-14T05:58:11;94305.25;;;-2.15;81.04
52249;BME280;38541;48.130;8.378;2023-02-14T06:00:38;94303.78;;;-2.18;80.45
52249;BME280;38541;48.130;8.378;2023-02-14T06:03:06;94302.28;;;-2.20;80.62
52249;BME280;38541;48.130;8.378;2023-02-14T06:05:33;94302.44;;;-2.22;80.85
52249;BME280;38541;48.130;8.378;2023-02-14T06:07:59;94299.06;;;-2.22;81.25
52249;BME280;38541;48.130;8.378;2023-02-14T06:10:26;94304.19;;;-2.22;81.49
52249;BME280;38541;48.130;8.378;2023-02-14T06:12:53;94299.59;;;-2.19;81.67
52249;BME280;38541;48.130;8.378;2023-02-14T06:15:20;94303.47;;;-2.15;82.21
52249;BME280;38541;48.130;8.378;2023-02-14T06:17:51;94296.56;;;-2.14;82.08
52249;BME280;38541;48.130;8.378;2023-02-14T06:20:18;94296.56;;;-2.14;82.26
52249;BME280;38541;48.130;8.378;2023-02-14T06:22:45;94297.38;;;-2.13;82.29
52249;BME280;38541;48.130;8.378;2023-02-14T06:25:12;94295.75;;;-2.15;82.07
52249;BME280;38541;48.130;8.378;2023-02-14T06:27:38;94302.53;;;-2.13;82.01
52249;BME280;38541;48.130;8.378;2023-02-14T06:30:05;94314.44;;;-2.12;82.23
52249;BME280;38541;48.130;8.378;2023-02-14T06:32:32;94303.34;;;-2.13;81.92
52249;BME280;38541;48.130;8.378;2023-02-14T06:34:59;94312.03;;;-2.14;81.61
52249;BME280;38541;48.130;8.378;2023-02-14T06:37:25;94305.81;;;-2.21;81.22
52249;BME280;38541;48.130;8.378;2023-02-14T06:39:52;94324.78;;;-2.22;80.94
52249;BME280;38541;48.130;8.378;2023-02-14T06:42:18;94313.41;;;-2.20;80.71
52249;BME280;38541;48.130;8.378;2023-02-14T06:44:45;94317.84;;;-2.12;81.13
52249;BME280;38541;48.130;8.378;2023-02-14T06:47:12;94315.25;;;-2.12;81.69
52249;BME280;38541;48.130;8.378;2023-02-14T06:49:38;94319.47;;;-2.11;81.88
52249;BME280;38541;48.130;8.378;2023-02-14T06:52:05;94320.72;;;-2.15;80.91
52249;BME280;38541;48.130;8.378;2023-02-14T06:54:32;94327.75;;;-2.17;80.54
52249;BME280;38541;48.130;8.378;2023-02-14T06:56:58;94324.91;;;-2.14;80.50
52249;BME280;38541;48.130;8.378;2023-02-14T06:59:25;94327.56;;;-2.06;81.39
52249;BME280;38541;48.130;8.378;2023-02-14T07:01:51;94326.53;;;-1.95;81.75
52249;BME280;38541;48.130;8.378;2023-02-14T07:04:18;94320.59;;;-1.95;81.37
52249;BME280;38541;48.130;8.378;2023-02-14T07:06:45;94317.84;;;-1.94;81.33
52249;BME280;38541;48.130;8.378;2023-02-14T07:09:12;94322.72;;;-1.91;81.48
52249;BME280;38541;48.130;8.378;2023-02-14T07:11:43;94317.78;;;-1.84;81.49
52249;BME280;38541;48.130;8.378;2023-02-14T07:14:11;94317.00;;;-1.84;81.33
52249;BME280;38541;48.130;8.378;2023-02-14T07:16:38;94325.09;;;-1.79;81.21
52249;BME280;38541;48.130;8.378;2023-02-14T07:19:04;94324.00;;;-1.77;81.21
52249;BME280;38541;48.130;8.378;2023-02-14T07:21:31;94322.56;;;-1.71;81.75
52249;BME280;38541;48.130;8.378;2023-02-14T07:23:57;94316.63;;;-1.72;81.24
52249;BME280;38541;48.130;8.378;2023-02-14T07:26:24;94323.09;;;-1.67;81.76
52249;BME280;38541;48.130;8.378;2023-02-14T07:28:50;94315.72;;;-1.62;81.74
52249;BME280;38541;48.130;8.378;2023-02-14T07:31:17;94318.03;;;-1.59;81.41
52249;BME280;38541;48.130;8.378;2023-02-14T07:33:45;94324.81;;;-1.58;81.21
52249;BME280;38541;48.130;8.378;2023-02-14T07:36:11;94324.88;;;-1.50;81.16
52249;BME280;38541;48.130;8.378;2023-02-14T07:38:38;94310.72;;;-1.46;81.36
52249;BME280;38541;48.130;8.378;2023-02-14T07:41:04;94317.72;;;-1.38;81.82
52249;BME280;38541;48.130;8.378;2023-02-14T07:43:30;94307.19;;;-1.26;81.76
52249;BME280;38541;48.130;8.378;2023-02-14T07:46:00;94311.06;;;-1.22;82.13
52249;BME280;38541;48.130;8.378;2023-02-14T07:48:28;94311.91;;;-1.22;81.86
52249;BME280;38541;48.130;8.378;2023-02-14T07:50:58;94314.00;;;-1.17;81.59
52249;BME280;38541;48.130;8.378;2023-02-14T07:53:25;94314.06;;;-1.09;81.59
52249;BME280;38541;48.130;8.378;2023-02-14T07:55:52;94305.41;;;-0.99;82.00
52249;BME280;38541;48.130;8.378;2023-02-14T07:58:18;94310.47;;;-0.90;81.73
52249;BME280;38541;48.130;8.378;2023-02-14T08:00:46;94301.97;;;-0.82;81.82
52249;BME280;38541;48.130;8.378;2023-02-14T08:03:13;94309.28;;;-0.77;81.71
52249;BME280;38541;48.130;8.378;2023-02-14T08:05:39;94308.66;;;-0.71;82.06
52249;BME280;38541;48.130;8.378;2023-02-14T08:08:06;94307.75;;;-0.62;82.71
52249;BME280;38541;48.130;8.378;2023-02-14T08:10:32;94310.34;;;-0.53;82.32
52249;BME280;38541;48.130;8.378;2023-02-14T08:12:59;94303.47;;;-0.45;83.26
52249;BME280;38541;48.130;8.378;2023-02-14T08:15:31;94304.47;;;-0.37;82.63
52249;BME280;38541;48.130;8.378;2023-02-14T08:18:17;94295.91;;;-0.30;82.37
52249;BME280;38541;48.130;8.378;2023-02-14T08:20:45;94297.44;;;-0.19;82.99
52249;BME280;38541;48.130;8.378;2023-02-14T08:23:16;94298.94;;;-0.08;82.39
52249;BME280;38541;48.130;8.378;2023-02-14T08:25:43;94292.47;;;0.05;83.04
52249;BME280;38541;48.130;8.378;2023-02-14T08:28:09;94293.16;;;0.15;83.28
52249;BME280;38541;48.130;8.378;2023-02-14T08:30:36;94292.38;;;0.23;82.88
52249;BME280;38541;48.130;8.378;2023-02-14T08:33:04;94293.97;;;0.32;82.82
52249;BME280;38541;48.130;8.378;2023-02-14T08:35:30;94292.88;;;0.35;82.46
52249;BME280;38541;48.130;8.378;2023-02-14T08:37:57;94293.81;;;0.42;81.83
52249;BME280;38541;48.130;8.378;2023-02-14T08:40:23;94292.88;;;0.51;82.12
52249;BME280;38541;48.130;8.378;2023-02-14T08:42:50;94291.44;;;0.57;82.33
52249;BME280;38541;48.130;8.378;2023-02-14T08:45:17;94284.16;;;0.69;82.67
52249;BME280;38541;48.130;8.378;2023-02-14T08:47:43;94285.59;;;0.80;82.04
52249;BME280;38541;48.130;8.378;2023-02-14T08:50:12;94281.22;;;0.89;83.06
52249;BME280;38541;48.130;8.378;2023-02-14T08:52:40;94285.72;;;1.03;82.64
52249;BME280;38541;48.130;8.378;2023-02-14T08:55:10;94286.38;;;1.13;82.80
52249;BME280;38541;48.130;8.378;2023-02-14T08:57:37;94283.25;;;1.26;83.28
52249;BME280;38541;48.130;8.378;2023-02-14T09:00:04;94284.03;;;1.35;82.60
52249;BME280;38541;48.130;8.378;2023-02-14T09:02:31;94285.97;;;1.41;82.29
52249;BME280;38541;48.130;8.378;2023-02-14T09:04:57;94277.22;;;1.51;83.05
52249;BME280;38541;48.130;8.378;2023-02-14T09:07:24;94279.59;;;1.61;82.78
52249;BME280;38541;48.130;8.378;2023-02-14T09:09:50;94280.03;;;1.73;82.90
52249;BME280;38541;48.130;8.378;2023-02-14T09:12:17;94282.25;;;1.84;83.54
52249;BME280;38541;48.130;8.378;2023-02-14T09:14:43;94288.84;;;1.95;83.47
52249;BME280;38541;48.130;8.378;2023-02-14T09:17:12;94267.25;;;2.03;83.14
52249;BME280;38541;48.130;8.378;2023-02-14T09:19:38;94273.84;;;2.13;83.78
52249;BME280;38541;48.130;8.378;2023-02-14T09:22:06;94273.63;;;2.23;83.27
52249;BME280;38541;48.130;8.378;2023-02-14T09:24:35;94276.78;;;2.34;83.46
52249;BME280;38541;48.130;8.378;2023-02-14T09:27:03;94273.78;;;2.45;83.89
52249;BME280;38541;48.130;8.378;2023-02-14T09:29:30;94267.56;;;2.54;83.74
52249;BME280;38541;48.130;8.378;2023-02-14T09:31:59;94266.53;;;2.64;83.76
52249;BME280;38541;48.130;8.378;2023-02-14T09:34:26;94263.53;;;2.75;83.71
52249;BME280;38541;48.130;8.378;2023-02-14T09:36:53;94263.44;;;2.83;83.88
52249;BME280;38541;48.130;8.378;2023-02-14T09:39:19;94265.16;;;2.91;83.28
52249;BME280;38541;48.130;8.378;2023-02-14T09:41:59;94266.34;;;3.04;83.02
52249;BME280;38541;48.130;8.378;2023-02-14T09:44:42;94256.59;;;3.21;82.87
52249;BME280;38541;48.130;8.378;2023-02-14T09:49:57;94260.16;;;3.50;83.68
52249;BME280;38541;48.130;8.378;2023-02-14T09:52:26;94252.56;;;3.63;83.53
52249;BME280;38541;48.130;8.378;2023-02-14T09:54:56;94257.31;;;3.75;83.00
52249;BME280;38541;48.130;8.378;2023-02-14T09:57:33;94253.88;;;3.89;83.06
52249;BME280;38541;48.130;8.378;2023-02-14T10:02:43;94248.59;;;4.19;82.10
52249;BME280;38541;48.130;8.378;2023-02-14T10:05:17;94249.97;;;4.37;82.34
52249;BME280;38541;48.130;8.378;2023-02-14T10:07:55;94255.91;;;4.52;82.70
52249;BME280;38541;48.130;8.378;2023-02-14T10:10:42;94247.47;;;4.72;82.68
52249;BME280;38541;48.130;8.378;2023-02-14T10:13:13;94245.22;;;4.91;82.63
52249;BME280;38541;48.130;8.378;2023-02-14T10:15:45;94243.16;;;5.14;82.70
52249;BME280;38541;48.130;8.378;2023-02-14T10:18:22;94241.09;;;5.38;82.01
52249;BME280;38541;48.130;8.378;2023-02-14T10:20:56;94243.00;;;5.58;81.62
52249;BME280;38541;48.130;8.378;2023-02-14T10:23:29;94238.91;;;5.77;81.55
52249;BME280;38541;48.130;8.378;2023-02-14T10:26:03;94241.84;;;6.03;81.82
52249;BME280;38541;48.130;8.378;2023-02-14T10:28:33;94243.91;;;6.27;81.48
52249;BME280;38541;48.130;8.378;2023-02-14T10:31:24;94240.13;;;6.57;81.32
52249;BME280;38541;48.130;8.378;2023-02-14T10:33:56;94233.34;;;6.83;80.28
52249;BME280;38541;48.130;8.378;2023-02-14T10:42:30;94218.13;;;7.59;78.70
52249;BME280;38541;48.130;8.378;2023-02-14T10:45:17;94215.81;;;7.83;77.82
52249;BME280;38541;48.130;8.378;2023-02-14T10:47:49;94211.91;;;8.06;77.09
52249;BME280;38541;48.130;8.378;2023-02-14T10:50:28;94212.59;;;8.26;75.18
52249;BME280;38541;48.130;8.378;2023-02-14T10:55:50;94206.31;;;8.66;73.90
52249;BME280;38541;48.130;8.378;2023-02-14T10:58:21;94200.69;;;8.88;73.24
52249;BME280;38541;48.130;8.378;2023-02-14T11:00:54;94200.38;;;9.03;71.28
52249;BME280;38541;48.130;8.378;2023-02-14T11:03:24;94190.13;;;9.20;69.94
52249;BME280;38541;48.130;8.378;2023-02-14T11:05:51;94187.13;;;9.35;69.11
52249;BME280;38541;48.130;8.378;2023-02-14T11:11:04;94187.56;;;9.69;69.42
52249;BME280;38541;48.130;8.378;2023-02-14T11:13:37;94179.91;;;9.87;69.35
52249;BME280;38541;48.130;8.378;2023-02-14T11:16:07;94173.47;;;10.01;67.17
52249;BME280;38541;48.130;8.378;2023-02-14T11:18:35;94179.34;;;10.15;66.42
52249;BME280;38541;48.130;8.378;2023-02-14T11:21:14;94163.63;;;10.27;65.88
52249;BME280;38541;48.130;8.378;2023-02-14T11:23:45;94173.34;;;10.38;67.01
52249;BME280;38541;48.130;8.378;2023-02-14T11:26:24;94170.00;;;10.50;65.58
52249;BME280;38541;48.130;8.378;2023-02-14T11:28:55;94161.34;;;10.61;64.51
52249;BME280;38541;48.130;8.378;2023-02-14T11:31:25;94161.91;;;10.75;64.53
52249;BME280;38541;48.130;8.378;2023-02-14T11:33:52;94165.69;;;10.91;63.77
52249;BME280;38541;48.130;8.378;2023-02-14T11:36:19;94159.19;;;11.06;63.29
52249;BME280;38541;48.130;8.378;2023-02-14T11:41:26;94156.31;;;11.31;61.59
52249;BME280;38541;48.130;8.378;2023-02-14T11:44:12;94148.41;;;11.43;62.39
52249;BME280;38541;48.130;8.378;2023-02-14T11:46:39;94143.28;;;11.65;62.26
52249;BME280;38541;48.130;8.378;2023-02-14T11:49:36;94148.16;;;11.85;60.53
52249;BME280;38541;48.130;8.378;2023-02-14T11:52:14;94148.00;;;12.04;60.09
52249;BME280;38541;48.130;8.378;2023-02-14T11:54:46;94144.75;;;12.14;58.92
52249;BME280;38541;48.130;8.378;2023-02-14T11:59:50;94142.00;;;12.38;55.73
52249;BME280;38541;48.130;8.378;2023-02-14T12:02:25;94136.97;;;12.53;56.31
52249;BME280;38541;48.130;8.378;2023-02-14T12:04:56;94131.88;;;12.64;56.88
52249;BME280;38541;48.130;8.378;2023-02-14T12:07:30;94135.78;;;12.78;53.99
52249;BME280;38541;48.130;8.378;2023-02-14T12:12:33;94122.97;;;13.04;53.98
52249;BME280;38541;48.130;8.378;2023-02-14T12:15:26;94120.59;;;13.25;52.20
52249;BME280;38541;48.130;8.378;2023-02-14T12:26:39;94112.78;;;13.75;45.97
52249;BME280;38541;48.130;8.378;2023-02-14T12:31:38;94120.31;;;13.88;41.81
52249;BME280;38541;48.130;8.378;2023-02-14T12:34:05;94113.78;;;13.96;42.19
52249;BME280;38541;48.130;8.378;2023-02-14T12:40:10;94101.78;;;14.10;39.56
52249;BME280;38541;48.130;8.378;2023-02-14T12:43:02;94100.91;;;14.32;43.18
52249;BME280;38541;48.130;8.378;2023-02-14T12:45:58;94104.41;;;14.38;42.44
52249;BME280;38541;48.130;8.378;2023-02-14T12:48:41;94092.53;;;14.40;40.85
52249;BME280;38541;48.130;8.378;2023-02-14T12:51:26;94100.78;;;14.49;41.45
52249;BME280;38541;48.130;8.378;2023-02-14T12:54:02;94092.91;;;14.54;42.67
52249;BME280;38541;48.130;8.378;2023-02-14T12:57:02;94095.63;;;14.65;41.93
52249;BME280;38541;48.130;8.378;2023-02-14T13:03:08;94081.00;;;14.90;40.88
52249;BME280;38541;48.130;8.378;2023-02-14T13:14:14;94076.47;;;15.33;42.20
52249;BME280;38541;48.130;8.378;2023-02-14T13:16:59;94070.88;;;15.30;40.75
52249;BME280;38541;48.130;8.378;2023-02-14T13:19:40;94076.50;;;15.44;40.76
52249;BME280;38541;48.130;8.378;2023-02-14T13:22:15;94070.94;;;15.40;38.29
52249;BME280;38541;48.130;8.378;2023-02-14T13:24:48;94063.53;;;15.42;39.77
52249;BME280;38541;48.130;8.378;2023-02-14T13:27:21;94061.13;;;15.40;38.88
52249;BME280;38541;48.130;8.378;2023-02-14T13:29:56;94057.19;;;15.48;37.71
52249;BME280;38541;48.130;8.378;2023-02-14T13:32:29;94051.41;;;15.57;38.86
52249;BME280;38541;48.130;8.378;2023-02-14T13:34:57;94050.63;;;15.72;39.53
52249;BME280;38541;48.130;8.378;2023-02-14T13:37:25;94051.97;;;15.84;37.29
52249;BME280;38541;48.130;8.378;2023-02-14T13:39:56;94055.41;;;15.80;39.25
52249;BME280;38541;48.130;8.378;2023-02-14T13:48:15;94047.28;;;16.02;37.53
52249;BME280;38541;48.130;8.378;2023-02-14T13:53:43;94044.63;;;16.18;37.16
52249;BME280;38541;48.130;8.378;2023-02-14T13:58:59;94049.41;;;16.26;36.31
52249;BME280;38541;48.130;8.378;2023-02-14T14:01:47;94045.97;;;16.31;37.62
52249;BME280;38541;48.130;8.378;2023-02-14T14:12:41;94040.09;;;16.75;35.73
52249;BME280;38541;48.130;8.378;2023-02-14T14:15:11;94048.28;;;16.84;36.39
52249;BME280;38541;48.130;8.378;2023-02-14T14:17:43;94042.22;;;16.78;35.47
52249;BME280;38541;48.130;8.378;2023-02-14T14:22:54;94033.44;;;16.83;34.60
52249;BME280;38541;48.130;8.378;2023-02-14T14:25:34;94032.25;;;17.36;34.52
52249;BME280;38541;48.130;8.378;2023-02-14T14:28:30;94034.13;;;18.25;33.02
52249;BME280;38541;48.130;8.378;2023-02-14T14:30:55;94033.19;;;18.75;32.94
52249;BME280;38541;48.130;8.378;2023-02-14T14:33:33;94038.47;;;18.16;32.57
52249;BME280;38541;48.130;8.378;2023-02-14T14:36:05;94038.88;;;17.89;33.27
52249;BME280;38541;48.130;8.378;2023-02-14T14:38:34;94036.44;;;17.97;33.13
52249;BME280;38541;48.130;8.378;2023-02-14T14:41:10;94039.59;;;18.05;32.87
52249;BME280;38541;48.130;8.378;2023-02-14T14:43:38;94041.03;;;18.32;32.75
52249;BME280;38541;48.130;8.378;2023-02-14T14:46:08;94040.03;;;18.22;32.94
52249;BME280;38541;48.130;8.378;2023-02-14T14:48:42;94044.50;;;19.64;30.46
52249;BME280;38541;48.130;8.378;2023-02-14T14:51:37;94032.47;;;20.24;30.80
52249;BME280;38541;48.130;8.378;2023-02-14T14:54:06;94038.78;;;23.47;26.03
52249;BME280;38541;48.130;8.378;2023-02-14T14:56:56;94035.75;;;24.42;23.66
52249;BME280;38541;48.130;8.378;2023-02-14T14:59:29;94038.59;;;24.37;24.83
52249;BME280;38541;48.130;8.378;2023-02-14T15:01:56;94039.69;;;26.52;21.23
52249;BME280;38541;48.130;8.378;2023-02-14T15:04:26;94040.19;;;26.66;21.55
52249;BME280;38541;48.130;8.378;2023-02-14T15:06:55;94031.41;;;26.14;21.54